createdAt,value
2022-11-20T00:00:54.881Z,4.60
2022-11-20T00:03:22.031Z,4.28
2022-11-20T00:05:48.891Z,4.65
2022-11-20T00:08:15.657Z,3.80
2022-11-20T00:10:42.498Z,4.82
2022-11-20T00:13:09.303Z,4.38
2022-11-20T00:15:36.084Z,4.55
2022-11-20T00:18:02.864Z,4.90
2022-11-20T00:20:29.597Z,4.68
2022-11-20T00:22:56.361Z,4.50
2022-11-20T00:25:23.148Z,4.50
2022-11-20T00:27:49.886Z,5.18
2022-11-20T00:30:16.741Z,4.80
2022-11-20T00:32:43.465Z,4.60
2022-11-20T00:35:10.303Z,4.68
2022-11-20T00:37:37.026Z,5.32
2022-11-20T00:40:04.010Z,4.55
2022-11-20T00:42:31.987Z,4.20
2022-11-20T00:44:58.765Z,4.55
2022-11-20T00:47:25.458Z,4.55
2022-11-20T00:49:52.233Z,3.83
2022-11-20T00:52:19.194Z,7.60
2022-11-20T00:54:45.944Z,4.20
2022-11-20T00:57:12.648Z,4.40
2022-11-20T00:59:39.406Z,3.70
2022-11-20T01:02:06.158Z,4.90
2022-11-20T01:04:32.933Z,5.22
2022-11-20T01:06:59.710Z,4.32
2022-11-20T01:09:26.497Z,3.97
2022-11-20T01:11:53.222Z,3.80
2022-11-20T01:14:20.773Z,4.03
2022-11-20T01:16:52.162Z,4.95
2022-11-20T01:19:22.454Z,4.45
2022-11-20T01:21:52.512Z,5.10
2022-11-20T01:24:21.506Z,4.40
2022-11-20T01:26:50.839Z,3.80
2022-11-20T01:29:21.519Z,4.18
2022-11-20T01:31:48.760Z,4.32
2022-11-20T01:34:18.508Z,4.15
2022-11-20T01:36:46.204Z,3.65
2022-11-20T01:39:19.735Z,5.65
2022-11-20T01:42:09.900Z,4.65
2022-11-20T01:44:56.650Z,4.07
2022-11-20T01:47:44.808Z,4.32
2022-11-20T01:50:17.473Z,4.82
2022-11-20T01:52:50.529Z,3.95
2022-11-20T01:55:26.627Z,4.05
2022-11-20T01:57:53.978Z,4.15
2022-11-20T02:00:21.711Z,4.65
2022-11-20T02:02:55.926Z,5.25
2022-11-20T02:05:31.678Z,4.30
2022-11-20T02:08:00.189Z,4.07
2022-11-20T02:10:28.076Z,4.53
2022-11-20T02:13:13.953Z,4.55
2022-11-20T02:15:41.862Z,4.57
2022-11-20T02:18:10.838Z,4.35
2022-11-20T02:20:38.298Z,5.50
2022-11-20T02:23:08.342Z,4.93
2022-11-20T02:25:37.639Z,4.15
2022-11-20T02:28:05.959Z,4.55
2022-11-20T02:30:32.727Z,4.00
2022-11-20T02:32:59.605Z,3.90
2022-11-20T02:35:26.276Z,4.10
2022-11-20T02:37:56.831Z,4.75
2022-11-20T02:40:23.953Z,4.35
2022-11-20T02:42:54.649Z,5.15
2022-11-20T02:45:21.596Z,5.05
2022-11-20T02:47:48.323Z,4.50
2022-11-20T02:50:15.160Z,4.13
2022-11-20T02:52:42.035Z,4.68
2022-11-20T02:55:09.309Z,4.68
2022-11-20T02:57:42.807Z,4.80
2022-11-20T03:00:10.494Z,4.20
2022-11-20T03:02:37.247Z,5.15
2022-11-20T03:05:04.193Z,4.25
2022-11-20T03:07:30.952Z,4.57
2022-11-20T03:09:57.754Z,3.83
2022-11-20T03:12:24.474Z,4.25
2022-11-20T03:14:53.317Z,4.60
2022-11-20T03:17:20.491Z,3.90
2022-11-20T03:19:47.263Z,4.72
2022-11-20T03:22:14.189Z,4.68
2022-11-20T03:24:41.003Z,4.10
2022-11-20T03:27:07.937Z,4.45
2022-11-20T03:29:36.328Z,3.75
2022-11-20T03:32:03.109Z,3.95
2022-11-20T03:34:29.904Z,4.45
2022-11-20T03:36:56.698Z,4.30
2022-11-20T03:39:23.746Z,4.00
2022-11-20T03:41:50.984Z,4.28
2022-11-20T03:44:17.747Z,3.47
2022-11-20T03:46:44.517Z,3.90
2022-11-20T03:49:11.326Z,4.20
2022-11-20T03:51:38.088Z,3.83
2022-11-20T03:54:07.094Z,4.30
2022-11-20T03:56:37.157Z,3.40
2022-11-20T03:59:04.480Z,3.83
2022-11-20T04:01:36.615Z,3.55
2022-11-20T04:04:04.242Z,3.65
2022-11-20T04:06:35.516Z,4.07
2022-11-20T04:09:02.405Z,4.07
2022-11-20T04:11:31.769Z,3.70
2022-11-20T04:14:04.240Z,3.92
2022-11-20T04:16:33.311Z,3.70
2022-11-20T04:19:02.018Z,4.13
2022-11-20T04:21:29.165Z,3.63
2022-11-20T04:23:56.537Z,4.18
2022-11-20T04:26:25.005Z,4.03
2022-11-20T04:28:52.201Z,3.80
2022-11-20T04:31:22.235Z,3.65
2022-11-20T04:33:49.238Z,4.10
2022-11-20T04:36:21.807Z,3.40
2022-11-20T04:38:57.287Z,4.07
2022-11-20T04:41:27.001Z,3.83
2022-11-20T04:44:00.425Z,3.45
2022-11-20T04:46:28.632Z,3.70
2022-11-20T04:48:55.521Z,3.10
2022-11-20T04:51:22.796Z,3.50
2022-11-20T04:53:49.573Z,3.17
2022-11-20T04:56:16.475Z,5.70
2022-11-20T04:58:43.525Z,4.38
2022-11-20T05:01:18.984Z,3.33
2022-11-20T05:03:46.669Z,3.90
2022-11-20T05:06:17.108Z,3.40
2022-11-20T05:08:44.077Z,3.63
2022-11-20T05:11:13.732Z,3.17
2022-11-20T05:13:41.072Z,3.50
2022-11-20T05:16:16.402Z,3.30
2022-11-20T05:18:43.648Z,3.40
2022-11-20T05:21:11.358Z,4.22
2022-11-20T05:23:38.563Z,3.92
2022-11-20T05:26:06.365Z,3.22
2022-11-20T05:28:34.287Z,3.80
2022-11-20T05:31:13.317Z,3.33
2022-11-20T05:33:44.728Z,3.20
2022-11-20T05:36:13.243Z,3.20
2022-11-20T05:38:40.832Z,3.53
2022-11-20T05:41:19.143Z,2.67
2022-11-20T05:43:48.227Z,4.95
2022-11-20T05:46:16.812Z,3.88
2022-11-20T05:48:44.742Z,3.85
2022-11-20T05:51:13.780Z,3.35
2022-11-20T05:53:46.712Z,2.97
2022-11-20T05:56:18.349Z,3.42
2022-11-20T05:58:45.315Z,3.20
2022-11-20T06:01:23.604Z,3.60
2022-11-20T06:03:51.638Z,3.15
2022-11-20T06:06:20.103Z,3.30
2022-11-20T06:08:46.923Z,2.77
2022-11-20T06:11:15.827Z,2.80
2022-11-20T06:13:43.464Z,2.87
2022-11-20T06:16:12.065Z,2.97
2022-11-20T06:18:39.426Z,3.10
2022-11-20T06:21:07.642Z,2.70
2022-11-20T06:23:35.995Z,2.53
2022-11-20T06:26:07.845Z,2.80
2022-11-20T06:28:34.924Z,2.63
2022-11-20T06:31:01.772Z,3.40
2022-11-20T06:33:28.832Z,5.40
2022-11-20T06:36:07.205Z,4.10
2022-11-20T06:38:35.898Z,3.03
2022-11-20T06:41:03.874Z,2.70
2022-11-20T06:43:31.010Z,3.60
2022-11-20T06:45:59.494Z,2.90
2022-11-20T06:48:28.147Z,4.03
2022-11-20T06:50:54.858Z,3.58
2022-11-20T06:53:22.722Z,3.07
2022-11-20T06:55:51.471Z,3.22
2022-11-20T06:58:19.178Z,3.17
2022-11-20T07:00:45.945Z,3.50
2022-11-20T07:03:13.828Z,2.90
2022-11-20T07:05:41.276Z,2.83
2022-11-20T07:08:08.738Z,2.58
2022-11-20T07:10:35.936Z,2.92
2022-11-20T07:13:02.775Z,2.67
2022-11-20T07:15:29.664Z,3.28
2022-11-20T07:17:59.154Z,3.42
2022-11-20T07:20:26.041Z,2.53
2022-11-20T07:22:56.841Z,3.60
2022-11-20T07:25:24.937Z,3.00
2022-11-20T07:27:51.878Z,2.83
2022-11-20T07:30:19.210Z,2.97
2022-11-20T07:32:52.589Z,2.40
2022-11-20T07:35:19.915Z,2.80
2022-11-20T07:37:46.811Z,2.85
2022-11-20T07:40:14.377Z,3.17
2022-11-20T07:42:52.031Z,8.10
2022-11-20T07:45:19.887Z,4.20
2022-11-20T07:47:46.847Z,5.07
2022-11-20T07:50:14.587Z,3.17
2022-11-20T07:52:41.540Z,2.97
2022-11-20T07:55:09.878Z,3.38
2022-11-20T07:57:36.772Z,2.93
2022-11-20T08:00:06.139Z,2.65
2022-11-20T08:02:32.864Z,3.00
2022-11-20T08:04:59.753Z,3.20
2022-11-20T08:07:26.564Z,3.00
2022-11-20T08:09:53.435Z,2.07
2022-11-20T08:12:40.145Z,2.40
2022-11-20T08:15:12.847Z,2.63
2022-11-20T08:17:40.078Z,2.67
2022-11-20T08:20:07.269Z,3.10
2022-11-20T08:22:34.020Z,2.70
2022-11-20T08:25:00.784Z,3.10
2022-11-20T08:27:27.700Z,2.63
2022-11-20T08:29:54.469Z,3.07
2022-11-20T08:32:21.173Z,2.63
2022-11-20T08:34:48.064Z,3.20
2022-11-20T08:37:14.914Z,2.75
2022-11-20T08:39:41.658Z,3.08
2022-11-20T08:42:09.179Z,3.10
2022-11-20T08:44:36.025Z,2.87
2022-11-20T08:47:02.731Z,3.00
2022-11-20T08:49:29.491Z,2.80
2022-11-20T08:51:56.340Z,3.00
2022-11-20T08:54:23.654Z,2.93
2022-11-20T08:56:50.472Z,3.25
2022-11-20T08:59:31.215Z,4.85
2022-11-20T09:02:04.055Z,3.27
2022-11-20T09:04:30.833Z,2.50
2022-11-20T09:06:57.699Z,2.50
2022-11-20T09:09:24.936Z,2.70
2022-11-20T09:11:51.971Z,2.47
2022-11-20T09:14:18.720Z,3.37
2022-11-20T09:16:47.497Z,2.73
2022-11-20T09:19:34.738Z,3.00
2022-11-20T09:22:01.262Z,3.23
2022-11-20T09:24:28.977Z,2.60
2022-11-20T09:26:55.782Z,2.47
2022-11-20T09:29:22.914Z,2.60
2022-11-20T09:31:50.108Z,2.90
2022-11-20T09:34:17.014Z,2.90
2022-11-20T09:36:43.760Z,2.97
2022-11-20T09:39:10.509Z,2.37
2022-11-20T09:41:37.179Z,3.20
2022-11-20T09:44:34.634Z,2.27
2022-11-20T09:47:16.530Z,2.20
2022-11-20T09:50:11.285Z,2.70
2022-11-20T09:53:04.009Z,2.10
2022-11-20T09:55:31.893Z,2.10
2022-11-20T09:58:00.253Z,2.80
2022-11-20T10:00:29.834Z,3.90
2022-11-20T10:03:14.278Z,2.90
2022-11-20T10:05:48.486Z,2.67
2022-11-20T10:08:26.286Z,2.23
2022-11-20T10:10:56.087Z,2.30
2022-11-20T10:13:33.495Z,2.00
2022-11-20T10:16:18.834Z,1.90
2022-11-20T10:19:01.367Z,1.37
2022-11-20T10:21:55.848Z,1.70
2022-11-20T10:24:40.470Z,2.43
2022-11-20T10:27:43.661Z,1.90
2022-11-20T10:30:13.239Z,2.33
2022-11-20T10:32:47.278Z,1.70
2022-11-20T10:35:43.714Z,2.07
2022-11-20T10:38:22.656Z,1.70
2022-11-20T10:40:54.039Z,2.20
2022-11-20T10:43:33.537Z,2.20
2022-11-20T10:46:05.678Z,2.10
2022-11-20T10:48:33.437Z,1.80
2022-11-20T10:51:33.823Z,2.00
2022-11-20T10:54:38.029Z,1.60
2022-11-20T10:57:21.084Z,1.60
2022-11-20T11:00:14.613Z,1.37
2022-11-20T11:02:47.544Z,1.30
2022-11-20T11:05:33.453Z,1.83
2022-11-20T11:08:00.315Z,1.47
2022-11-20T11:10:37.167Z,1.33
2022-11-20T11:13:04.765Z,1.50
2022-11-20T11:15:40.082Z,2.07
2022-11-20T11:18:10.529Z,1.60
2022-11-20T11:20:37.548Z,1.73
2022-11-20T11:23:05.543Z,1.60
2022-11-20T11:25:37.664Z,1.80
2022-11-20T11:28:25.940Z,1.70
2022-11-20T11:30:53.256Z,1.53
2022-11-20T11:33:21.527Z,2.20
2022-11-20T11:35:53.418Z,1.50
2022-11-20T11:38:30.888Z,3.80
2022-11-20T11:40:58.511Z,2.40
2022-11-20T11:43:48.240Z,1.80
2022-11-20T11:46:36.361Z,1.37
2022-11-20T11:49:19.074Z,1.53
2022-11-20T11:52:09.270Z,1.67
2022-11-20T11:54:47.666Z,1.70
2022-11-20T11:57:36.014Z,1.43
2022-11-20T12:00:11.006Z,1.40
2022-11-20T12:02:40.388Z,1.90
2022-11-20T12:05:26.927Z,1.73
2022-11-20T12:07:59.713Z,1.70
2022-11-20T12:10:41.867Z,1.80
2022-11-20T12:13:19.026Z,1.60
2022-11-20T12:15:47.304Z,1.90
2022-11-20T12:18:22.240Z,1.47
2022-11-20T12:21:17.647Z,1.57
2022-11-20T12:23:56.306Z,1.63
2022-11-20T12:26:49.977Z,1.42
2022-11-20T12:29:33.571Z,1.73
2022-11-20T12:32:21.927Z,1.70
2022-11-20T12:35:00.894Z,1.47
2022-11-20T12:37:36.442Z,1.80
2022-11-20T12:40:29.951Z,2.70
2022-11-20T12:43:15.177Z,2.70
2022-11-20T12:45:55.335Z,1.70
2022-11-20T12:48:46.277Z,2.07
2022-11-20T12:51:28.019Z,2.83
2022-11-20T12:54:31.767Z,2.10
2022-11-20T12:57:29.736Z,1.93
2022-11-20T12:59:59.227Z,1.93
2022-11-20T13:02:40.165Z,1.90
2022-11-20T13:05:28.426Z,1.77
2022-11-20T13:07:55.899Z,1.70
2022-11-20T13:10:34.786Z,2.20
2022-11-20T13:13:31.931Z,2.30
2022-11-20T13:16:14.532Z,2.37
2022-11-20T13:18:43.679Z,1.67
2022-11-20T13:21:17.769Z,1.97
2022-11-20T13:23:44.561Z,1.90
2022-11-20T13:26:22.191Z,2.13
2022-11-20T13:29:01.111Z,2.30
2022-11-20T13:31:30.619Z,3.20
2022-11-20T13:33:58.789Z,2.83
2022-11-20T13:36:28.504Z,3.15
2022-11-20T13:38:57.147Z,2.70
2022-11-20T13:41:36.416Z,1.95
2022-11-20T13:44:38.690Z,2.87
2022-11-20T13:47:20.979Z,2.13
2022-11-20T13:49:49.215Z,2.03
2022-11-20T13:52:47.370Z,2.20
2022-11-20T13:55:16.929Z,2.50
2022-11-20T13:58:09.428Z,3.20
2022-11-20T14:01:03.755Z,3.60
2022-11-20T14:03:59.027Z,2.70
2022-11-20T14:06:32.535Z,2.20
2022-11-20T14:09:00.487Z,2.27
2022-11-20T14:11:29.688Z,2.10
2022-11-20T14:14:22.010Z,1.77
2022-11-20T14:16:50.790Z,1.60
2022-11-20T14:19:20.599Z,1.93
2022-11-20T14:21:48.783Z,1.90
2022-11-20T14:24:21.127Z,2.17
2022-11-20T14:26:48.829Z,1.80
2022-11-20T14:29:20.851Z,2.03
2022-11-20T14:31:54.133Z,1.73
2022-11-20T14:34:30.145Z,1.80
2022-11-20T14:37:05.804Z,2.30
2022-11-20T14:39:38.768Z,2.50
2022-11-20T14:42:20.263Z,1.75
2022-11-20T14:44:48.623Z,2.20
2022-11-20T14:47:20.342Z,1.80
2022-11-20T14:49:47.948Z,1.70
2022-11-20T14:52:21.070Z,1.57
2022-11-20T14:54:52.890Z,1.70
2022-11-20T14:57:31.776Z,2.27
2022-11-20T15:00:13.813Z,1.70
2022-11-20T15:02:48.622Z,1.60
2022-11-20T15:05:16.994Z,2.83
2022-11-20T15:07:52.521Z,2.60
2022-11-20T15:10:28.118Z,1.80
2022-11-20T15:13:09.780Z,2.07
2022-11-20T15:15:42.405Z,1.45
2022-11-20T15:18:20.727Z,3.58
2022-11-20T15:20:47.975Z,5.17
2022-11-20T15:23:19.880Z,2.05
2022-11-20T15:25:48.223Z,1.70
2022-11-20T15:28:19.690Z,1.88
2022-11-20T15:30:48.082Z,1.37
2022-11-20T15:33:15.789Z,1.93
2022-11-20T15:35:42.668Z,1.38
2022-11-20T15:38:09.786Z,1.35
2022-11-20T15:40:37.046Z,1.50
2022-11-20T15:43:08.146Z,1.20
2022-11-20T15:45:43.142Z,1.50
2022-11-20T15:48:17.037Z,1.50
2022-11-20T15:51:10.541Z,2.28
2022-11-20T15:53:38.216Z,1.70
2022-11-20T15:56:05.747Z,1.42
2022-11-20T15:58:32.487Z,1.60
2022-11-20T16:00:59.818Z,2.10
2022-11-20T16:03:26.651Z,2.80
2022-11-20T16:05:53.354Z,1.87
2022-11-20T16:08:21.177Z,2.33
2022-11-20T16:10:48.042Z,2.50
2022-11-20T16:13:36.897Z,2.28
2022-11-20T16:16:11.051Z,1.92
2022-11-20T16:18:37.873Z,1.50
2022-11-20T16:21:04.749Z,1.87
2022-11-20T16:23:31.543Z,1.60
2022-11-20T16:25:58.303Z,1.73
2022-11-20T16:28:25.068Z,1.98
2022-11-20T16:30:51.867Z,3.78
2022-11-20T16:33:18.638Z,3.35
2022-11-20T16:35:45.382Z,4.10
2022-11-20T16:38:12.197Z,2.73
2022-11-20T16:40:38.953Z,2.00
2022-11-20T16:43:14.722Z,2.03
2022-11-20T16:45:45.373Z,1.70
2022-11-20T16:48:16.829Z,1.80
2022-11-20T16:50:48.510Z,1.70
2022-11-20T16:53:15.383Z,1.30
2022-11-20T16:55:42.720Z,1.27
2022-11-20T16:58:09.570Z,1.10
2022-11-20T17:00:40.169Z,1.75
2022-11-20T17:03:07.480Z,1.60
2022-11-20T17:05:35.143Z,1.80
2022-11-20T17:08:02.236Z,2.30
2022-11-20T17:10:29.316Z,2.42
2022-11-20T17:12:56.078Z,2.20
2022-11-20T17:15:22.968Z,3.20
2022-11-20T17:17:49.754Z,2.50
2022-11-20T17:20:16.599Z,2.65
2022-11-20T17:22:43.321Z,2.85
2022-11-20T17:25:10.065Z,3.03
2022-11-20T17:27:36.786Z,2.88
2022-11-20T17:30:03.735Z,2.90
2022-11-20T17:32:30.444Z,3.80
2022-11-20T17:34:58.897Z,3.30
2022-11-20T17:37:25.597Z,3.45
2022-11-20T17:39:52.400Z,7.50
2022-11-20T17:42:29.467Z,4.40
2022-11-20T17:44:58.798Z,5.25
2022-11-20T17:47:26.171Z,4.63
2022-11-20T17:49:53.675Z,4.20
2022-11-20T17:52:20.486Z,4.13
2022-11-20T17:54:47.302Z,3.72
2022-11-20T17:57:32.590Z,3.80
2022-11-20T17:59:59.436Z,3.08
2022-11-20T18:02:26.209Z,3.70
2022-11-20T18:04:52.955Z,3.80
2022-11-20T18:07:19.743Z,3.95
2022-11-20T18:09:46.563Z,4.18
2022-11-20T18:12:13.417Z,5.10
2022-11-20T18:14:41.457Z,4.75
2022-11-20T18:17:14.539Z,5.28
2022-11-20T18:20:13.770Z,5.38
2022-11-20T18:22:34.306Z,4.75
2022-11-20T18:25:01.100Z,5.65
2022-11-20T18:27:27.840Z,5.35
2022-11-20T18:29:54.611Z,4.88
2022-11-20T18:32:22.771Z,5.68
2022-11-20T18:34:50.071Z,5.95
2022-11-20T18:37:17.255Z,6.25
2022-11-20T18:39:44.348Z,5.22
2022-11-20T18:42:31.868Z,6.55
2022-11-20T18:45:00.242Z,4.93
2022-11-20T18:47:35.624Z,5.18
2022-11-20T18:50:03.348Z,5.15
2022-11-20T18:52:37.551Z,5.18
2022-11-20T18:55:05.708Z,5.28
2022-11-20T18:57:32.897Z,5.38
2022-11-20T19:00:04.857Z,5.28
2022-11-20T19:02:37.936Z,5.05
2022-11-20T19:05:08.430Z,5.68
2022-11-20T19:07:35.284Z,6.32
2022-11-20T19:10:03.883Z,6.18
2022-11-20T19:12:31.325Z,6.65
2022-11-20T19:14:58.167Z,6.55
2022-11-20T19:17:24.949Z,6.50
2022-11-20T19:19:54.953Z,7.35
2022-11-20T19:22:22.165Z,9.13
2022-11-20T19:24:49.462Z,6.05
2022-11-20T19:27:16.375Z,5.88
2022-11-20T19:29:43.232Z,5.60
2022-11-20T19:32:10.027Z,5.63
2022-11-20T19:34:36.963Z,6.55
2022-11-20T19:37:03.957Z,6.03
2022-11-20T19:39:30.861Z,5.53
2022-11-20T19:41:57.665Z,4.95
2022-11-20T19:44:24.482Z,5.50
2022-11-20T19:46:51.403Z,5.57
2022-11-20T19:49:18.390Z,5.30
2022-11-20T19:51:47.938Z,5.63
2022-11-20T19:54:16.954Z,6.20
2022-11-20T19:56:45.216Z,6.28
2022-11-20T19:59:12.347Z,6.35
2022-11-20T20:01:39.867Z,6.03
2022-11-20T20:04:07.098Z,6.45
2022-11-20T20:06:36.356Z,6.13
2022-11-20T20:09:08.736Z,6.40
2022-11-20T20:11:36.313Z,6.10
2022-11-20T20:14:13.683Z,6.47
2022-11-20T20:16:41.183Z,6.00
2022-11-20T20:19:08.020Z,6.70
2022-11-20T20:21:36.415Z,6.57
2022-11-20T20:24:03.763Z,5.50
2022-11-20T20:26:32.200Z,6.25
2022-11-20T20:29:00.825Z,6.00
2022-11-20T20:31:29.506Z,6.72
2022-11-20T20:33:56.680Z,6.40
2022-11-20T20:36:24.572Z,6.82
2022-11-20T20:38:55.879Z,7.55
2022-11-20T20:41:24.721Z,6.75
2022-11-20T20:44:11.868Z,6.75
2022-11-20T20:46:39.394Z,6.30
2022-11-20T20:49:07.331Z,6.70
2022-11-20T20:51:34.402Z,6.85
2022-11-20T20:54:01.297Z,5.90
2022-11-20T20:56:28.192Z,5.07
2022-11-20T20:58:54.932Z,5.45
2022-11-20T21:01:22.795Z,4.70
2022-11-20T21:03:49.892Z,3.45
2022-11-20T21:06:16.721Z,3.45
2022-11-20T21:08:44.688Z,3.50
2022-11-20T21:11:14.479Z,3.13
2022-11-20T21:13:44.061Z,2.15
2022-11-20T21:16:11.887Z,2.75
2022-11-20T21:18:38.635Z,3.78
2022-11-20T21:21:30.096Z,2.78
2022-11-20T21:23:56.895Z,3.35
2022-11-20T21:26:23.901Z,3.08
2022-11-20T21:28:50.681Z,2.50
2022-11-20T21:31:25.003Z,3.03
2022-11-20T21:33:53.552Z,2.88
2022-11-20T21:36:25.497Z,2.60
2022-11-20T21:38:56.484Z,3.35
2022-11-20T21:41:24.654Z,3.15
2022-11-20T21:44:23.514Z,3.42
2022-11-20T21:46:42.022Z,3.05
2022-11-20T21:49:09.358Z,3.30
2022-11-20T21:51:36.402Z,2.65
2022-11-20T21:54:04.129Z,3.55
2022-11-20T21:56:30.954Z,3.10
2022-11-20T21:58:58.759Z,3.03
2022-11-20T22:01:29.069Z,4.05
2022-11-20T22:04:01.166Z,3.10
2022-11-20T22:06:35.314Z,2.80
2022-11-20T22:09:03.153Z,3.08
2022-11-20T22:11:30.414Z,3.17
2022-11-20T22:14:16.073Z,3.05
2022-11-20T22:16:42.848Z,3.22
2022-11-20T22:19:09.697Z,2.33
2022-11-20T22:21:40.374Z,3.15
2022-11-20T22:24:08.070Z,2.70
2022-11-20T22:26:39.956Z,2.47
2022-11-20T22:29:07.835Z,2.75
2022-11-20T22:31:34.536Z,1.90
2022-11-20T22:34:02.385Z,2.45
2022-11-20T22:36:30.992Z,2.00
2022-11-20T22:38:58.587Z,1.40
2022-11-20T22:41:27.845Z,1.30
2022-11-20T22:44:03.125Z,1.60
2022-11-20T22:46:33.476Z,1.20
2022-11-20T22:49:02.367Z,1.50
2022-11-20T22:51:31.507Z,1.42
2022-11-20T22:53:58.604Z,1.10
2022-11-20T22:56:25.859Z,1.27
2022-11-20T22:58:53.859Z,2.03
2022-11-20T23:01:30.541Z,1.30
2022-11-20T23:03:59.499Z,1.63
2022-11-20T23:06:27.050Z,1.60
2022-11-20T23:08:54.705Z,1.70
2022-11-20T23:11:24.798Z,1.58
2022-11-20T23:14:03.090Z,1.75
2022-11-20T23:16:31.447Z,1.38
2022-11-20T23:19:00.892Z,1.60
2022-11-20T23:21:27.732Z,1.83
2022-11-20T23:23:56.905Z,1.88
2022-11-20T23:26:26.433Z,2.17
2022-11-20T23:28:54.554Z,1.75
2022-11-20T23:31:21.856Z,1.98
2022-11-20T23:33:48.877Z,2.17
2022-11-20T23:36:16.020Z,2.00
2022-11-20T23:38:43.060Z,1.50
2022-11-20T23:41:10.548Z,2.55
2022-11-20T23:43:37.315Z,1.73
2022-11-20T23:46:05.196Z,1.65
2022-11-20T23:48:37.202Z,2.10
2022-11-20T23:51:05.738Z,1.85
2022-11-20T23:53:33.051Z,1.55
2022-11-20T23:56:01.964Z,1.60
2022-11-20T23:58:37.109Z,1.27
